THY854 LTAN-LTFM
Flight info
| Callsign | THY854 |
|---|---|
| Flight time | N/A |
| Altitude | 36000 |
| Route | HISAR UL620 OSVEL UT337 KFK UM855 SISPI |
| Aircraft | A319/M-SDE3FGHIRWY/LB1 |
Departure
| Time | 2026-04-30 20:08 |
|---|---|
| Airport | Konya Airport (LTAN) |
Arrival
| Time | N/A |
|---|---|
| Airport | İstanbul Airport (LTFM) |
| Time | Latitude | Longitude | Altitude | Speed | Heading |
|---|---|---|---|---|---|
| 2026-04-30 19:44 | 37.98534 | 32.57550 | 3351 ft | 0 kts | 107° |
| 2026-04-30 20:00 | 37.98540 | 32.57526 | 3351 ft | 3 kts | 107° |
| 2026-04-30 20:00 | 37.98547 | 32.57494 | 3353 ft | 3 kts | 100° |
| 2026-04-30 20:01 | 37.98526 | 32.57457 | 3354 ft | 0 kts | 14° |
| 2026-04-30 20:01 | 37.98539 | 32.57466 | 3354 ft | 5 kts | 37° |
| 2026-04-30 20:02 | 37.98555 | 32.57480 | 3353 ft | 0 kts | 28° |
| 2026-04-30 20:03 | 37.98575 | 32.57491 | 3353 ft | 8 kts | 19° |
| 2026-04-30 20:03 | 37.98642 | 32.57516 | 3352 ft | 10 kts | 17° |
| 2026-04-30 20:04 | 37.98698 | 32.57538 | 3352 ft | 6 kts | 17° |
| 2026-04-30 20:04 | 37.98778 | 32.57567 | 3353 ft | 17 kts | 16° |
| 2026-04-30 20:04 | 37.98894 | 32.57569 | 3353 ft | 15 kts | 328° |
| 2026-04-30 20:05 | 37.99009 | 32.57415 | 3359 ft | 12 kts | 311° |
| 2026-04-30 20:05 | 37.99076 | 32.57317 | 3363 ft | 16 kts | 311° |
| 2026-04-30 20:05 | 37.99242 | 32.57075 | 3374 ft | 17 kts | 306° |
| 2026-04-30 20:06 | 37.99287 | 32.56941 | 3382 ft | 15 kts | 290° |
| 2026-04-30 20:06 | 37.99317 | 32.56815 | 3388 ft | 14 kts | 286° |
| 2026-04-30 20:06 | 37.99345 | 32.56697 | 3393 ft | 14 kts | 287° |
| 2026-04-30 20:06 | 37.99376 | 32.56577 | 3398 ft | 12 kts | 289° |
| 2026-04-30 20:07 | 37.99370 | 32.56505 | 3401 ft | 7 kts | 198° |
| 2026-04-30 20:07 | 37.99368 | 32.56504 | 3401 ft | 0 kts | 197° |
| 2026-04-30 20:07 | 37.99367 | 32.56504 | 3401 ft | 0 kts | 197° |
| 2026-04-30 20:08 | 37.99178 | 32.56433 | 3400 ft | 63 kts | 197° |
| 2026-04-30 20:08 | 37.98537 | 32.56196 | 3401 ft | 125 kts | 198° |
| 2026-04-30 20:08 | 37.97523 | 32.55820 | 3461 ft | 170 kts | 195° |
| 2026-04-30 20:08 | 37.96435 | 32.55442 | 4224 ft | 158 kts | 195° |
| 2026-04-30 20:09 | 37.95403 | 32.55097 | 4911 ft | 154 kts | 194° |
| 2026-04-30 20:09 | 37.94389 | 32.54785 | 5413 ft | 156 kts | 200° |
| 2026-04-30 20:09 | 37.93351 | 32.52428 | 6036 ft | 183 kts | 281° |
| 2026-04-30 20:10 | 37.95364 | 32.50474 | 6742 ft | 215 kts | 0° |
| 2026-04-30 20:10 | 37.96897 | 32.50642 | 7147 ft | 229 kts | 5° |
| 2026-04-30 20:10 | 37.98522 | 32.50643 | 7658 ft | 237 kts | 345° |
| 2026-04-30 20:11 | 38.00823 | 32.47749 | 8653 ft | 258 kts | 283° |
| 2026-04-30 20:11 | 38.01113 | 32.45438 | 9170 ft | 272 kts | 278° |
| 2026-04-30 20:11 | 38.01374 | 32.43001 | 9704 ft | 285 kts | 278° |
| 2026-04-30 20:12 | 38.01950 | 32.37911 | 10941 ft | 304 kts | 278° |
| 2026-04-30 20:12 | 38.02261 | 32.35244 | 11563 ft | 312 kts | 278° |
| 2026-04-30 20:12 | 38.02581 | 32.32510 | 12314 ft | 315 kts | 277° |
| 2026-04-30 20:13 | 38.02901 | 32.29784 | 13034 ft | 317 kts | 277° |
| 2026-04-30 20:13 | 38.03228 | 32.26990 | 13754 ft | 320 kts | 277° |
| 2026-04-30 20:13 | 38.03552 | 32.24209 | 14449 ft | 323 kts | 277° |
| 2026-04-30 20:13 | 38.03880 | 32.21391 | 15122 ft | 326 kts | 277° |
| 2026-04-30 20:14 | 38.04208 | 32.18581 | 15795 ft | 328 kts | 277° |
| 2026-04-30 20:14 | 38.04541 | 32.15724 | 16456 ft | 330 kts | 277° |
| 2026-04-30 20:14 | 38.04881 | 32.12825 | 17108 ft | 333 kts | 277° |
| 2026-04-30 20:14 | 38.05222 | 32.09920 | 17751 ft | 335 kts | 277° |
| 2026-04-30 20:15 | 38.05563 | 32.07005 | 18396 ft | 337 kts | 277° |
| 2026-04-30 20:15 | 38.05904 | 32.04068 | 19021 ft | 339 kts | 277° |
| 2026-04-30 20:15 | 38.06250 | 32.01086 | 19627 ft | 342 kts | 277° |
| 2026-04-30 20:15 | 38.06591 | 31.98134 | 20231 ft | 344 kts | 277° |
| 2026-04-30 20:16 | 38.06939 | 31.95104 | 20825 ft | 347 kts | 277° |
| 2026-04-30 20:16 | 38.07285 | 31.92089 | 21410 ft | 349 kts | 277° |
| 2026-04-30 20:16 | 38.07634 | 31.89044 | 21957 ft | 352 kts | 277° |
| 2026-04-30 20:16 | 38.07985 | 31.85974 | 22289 ft | 361 kts | 277° |
| 2026-04-30 20:17 | 38.08351 | 31.82762 | 22665 ft | 368 kts | 277° |
| 2026-04-30 20:17 | 38.08714 | 31.79576 | 23172 ft | 371 kts | 277° |
| 2026-04-30 20:17 | 38.09084 | 31.76304 | 23700 ft | 373 kts | 277° |
| 2026-04-30 20:17 | 38.09453 | 31.73042 | 24208 ft | 375 kts | 277° |
| 2026-04-30 20:18 | 38.09820 | 31.69772 | 24704 ft | 378 kts | 277° |
| 2026-04-30 20:18 | 38.10189 | 31.66478 | 25162 ft | 381 kts | 277° |
| 2026-04-30 20:18 | 38.10560 | 31.63171 | 25616 ft | 383 kts | 277° |
| 2026-04-30 20:18 | 38.10938 | 31.59793 | 26058 ft | 385 kts | 277° |
| 2026-04-30 20:19 | 38.11471 | 31.56474 | 26457 ft | 390 kts | 286° |
| 2026-04-30 20:19 | 38.12536 | 31.53336 | 26865 ft | 394 kts | 298° |
| 2026-04-30 20:19 | 38.14132 | 31.50467 | 27273 ft | 399 kts | 308° |
| 2026-04-30 20:19 | 38.15966 | 31.47823 | 27699 ft | 402 kts | 310° |
| 2026-04-30 20:20 | 38.17855 | 31.45173 | 28111 ft | 404 kts | 310° |
| 2026-04-30 20:20 | 38.19748 | 31.42517 | 28512 ft | 406 kts | 310° |
| 2026-04-30 20:20 | 38.21622 | 31.39877 | 28894 ft | 408 kts | 310° |
| 2026-04-30 20:20 | 38.23539 | 31.37164 | 29265 ft | 410 kts | 310° |
| 2026-04-30 20:21 | 38.25435 | 31.34473 | 29613 ft | 413 kts | 309° |
| 2026-04-30 20:21 | 38.27331 | 31.31766 | 29967 ft | 415 kts | 309° |
| 2026-04-30 20:21 | 38.29267 | 31.28995 | 30311 ft | 417 kts | 309° |
| 2026-04-30 20:21 | 38.31187 | 31.26248 | 30654 ft | 419 kts | 309° |
| 2026-04-30 20:22 | 38.33147 | 31.23446 | 31020 ft | 421 kts | 309° |
| 2026-04-30 20:22 | 38.35085 | 31.20676 | 31411 ft | 422 kts | 309° |
| 2026-04-30 20:22 | 38.35729 | 31.19755 | 31569 ft | 421 kts | 309° |